Terminal Aerodrome Forecast
Issued by NWS

Home | Current Version | Previous Version | Text Only | Print | Product List | Glossary On
Versions: 1 2 3 4 5 6 7 8 9 10 11 12 13 14
107
FTUS44 KEPZ 241134
TAFTCS
TAF
KTCS 241134Z 2412/2512 29006KT P6SM SKC
     FM241800 24013G23KT P6SM FEW250
     FM250500 23011KT P6SM FEW250=

USA.gov is the U.S. government's official web portal to all federal, state and local government web resources and services.